createdAt,value
2018-08-12T00:01:53.011Z,15.31
2018-08-12T00:04:21.416Z,15.30
2018-08-12T00:06:49.819Z,15.30
2018-08-12T00:09:18.235Z,15.28
2018-08-12T00:11:46.658Z,15.27
2018-08-12T00:14:15.059Z,15.25
2018-08-12T00:16:43.425Z,15.24
2018-08-12T00:19:11.979Z,15.24
2018-08-12T00:21:40.370Z,15.22
2018-08-12T00:24:08.799Z,15.21
2018-08-12T00:26:37.180Z,15.21
2018-08-12T00:29:05.910Z,15.20
2018-08-12T00:31:34.354Z,15.20
2018-08-12T00:34:02.759Z,15.20
2018-08-12T00:36:31.139Z,15.18
2018-08-12T00:38:59.563Z,15.17
2018-08-12T00:41:28.063Z,15.16
2018-08-12T00:43:56.448Z,15.15
2018-08-12T00:46:24.827Z,15.16
2018-08-12T00:48:53.227Z,15.15
2018-08-12T00:51:21.621Z,15.14
2018-08-12T00:53:50.018Z,15.15
2018-08-12T00:56:18.399Z,15.14
2018-08-12T00:58:46.803Z,15.13
2018-08-12T01:01:15.182Z,15.12
2018-08-12T01:03:43.570Z,15.11
2018-08-12T01:06:11.934Z,15.09
2018-08-12T01:08:40.338Z,15.09
2018-08-12T01:11:08.714Z,15.08
2018-08-12T01:13:37.138Z,15.07
2018-08-12T01:16:06.038Z,15.06
2018-08-12T01:18:34.455Z,15.05
2018-08-12T01:21:02.827Z,15.04
2018-08-12T01:23:31.239Z,15.03
2018-08-12T01:25:59.659Z,15.01
2018-08-12T01:28:28.164Z,15.00
2018-08-12T01:30:56.539Z,14.99
2018-08-12T01:33:24.947Z,14.98
2018-08-12T01:35:53.368Z,14.96
2018-08-12T01:38:21.759Z,14.96
2018-08-12T01:40:50.138Z,14.94
2018-08-12T01:43:18.543Z,14.91
2018-08-12T01:45:46.918Z,14.88
2018-08-12T01:48:15.307Z,14.86
2018-08-12T01:50:43.680Z,14.84
2018-08-12T01:53:12.106Z,14.83
2018-08-12T01:55:40.490Z,14.81
2018-08-12T01:58:09.499Z,14.78
2018-08-12T02:00:37.870Z,14.77
2018-08-12T02:03:06.306Z,14.77
2018-08-12T02:05:34.674Z,14.76
2018-08-12T02:08:03.074Z,14.75
2018-08-12T02:10:31.441Z,14.74
2018-08-12T02:12:59.848Z,14.71
2018-08-12T02:15:28.241Z,14.74
2018-08-12T02:17:56.614Z,14.73
2018-08-12T02:20:25.019Z,14.73
2018-08-12T02:22:53.390Z,14.73
2018-08-12T02:25:21.790Z,14.71
2018-08-12T02:27:50.158Z,14.71
2018-08-12T02:30:18.559Z,14.70
2018-08-12T02:32:46.945Z,14.69
2018-08-12T02:35:15.343Z,14.69
2018-08-12T02:37:43.719Z,14.69
2018-08-12T02:40:12.222Z,14.69
2018-08-12T02:42:40.615Z,14.68
2018-08-12T02:45:11.283Z,14.67
2018-08-12T02:47:39.659Z,14.66
2018-08-12T02:50:08.055Z,14.66
2018-08-12T02:52:36.959Z,14.66
2018-08-12T02:55:06.281Z,14.64
2018-08-12T02:57:34.655Z,14.63
2018-08-12T03:00:03.244Z,14.62
2018-08-12T03:02:31.646Z,14.61
2018-08-12T03:05:00.053Z,14.60
2018-08-12T03:07:28.430Z,14.60
2018-08-12T03:09:56.830Z,14.59
2018-08-12T03:12:25.222Z,14.59
2018-08-12T03:14:53.633Z,14.59
2018-08-12T03:17:22.009Z,14.58
2018-08-12T03:19:50.405Z,14.59
2018-08-12T03:22:18.841Z,14.58
2018-08-12T03:24:47.203Z,14.58
2018-08-12T03:27:15.604Z,14.58
2018-08-12T03:29:44.018Z,14.58
2018-08-12T03:32:12.390Z,14.59
2018-08-12T03:34:40.794Z,14.60
2018-08-12T03:37:09.160Z,14.61
2018-08-12T03:39:37.554Z,14.62
2018-08-12T03:42:05.952Z,14.62
2018-08-12T03:44:34.346Z,14.61
2018-08-12T03:47:02.717Z,14.61
2018-08-12T03:49:31.111Z,14.63
2018-08-12T03:51:59.488Z,14.65
2018-08-12T03:54:27.882Z,14.69
2018-08-12T03:56:56.254Z,14.72
2018-08-12T03:59:24.647Z,14.76
2018-08-12T04:01:53.010Z,14.80
2018-08-12T04:04:21.406Z,14.84
2018-08-12T04:06:49.783Z,14.87
2018-08-12T04:09:18.175Z,14.92
2018-08-12T04:11:46.554Z,15.01
2018-08-12T04:14:14.975Z,15.10
2018-08-12T04:16:47.699Z,15.18
2018-08-12T04:19:16.118Z,15.25
2018-08-12T04:21:44.510Z,15.27
2018-08-12T04:24:12.895Z,15.28
2018-08-12T04:26:41.293Z,15.30
2018-08-12T04:29:09.667Z,15.27
2018-08-12T04:31:38.094Z,15.26
2018-08-12T04:34:06.471Z,15.26
2018-08-12T04:36:34.906Z,15.23
2018-08-12T04:39:03.374Z,15.20
2018-08-12T04:41:31.770Z,15.17
2018-08-12T04:44:00.142Z,15.16
2018-08-12T04:46:28.534Z,15.14
2018-08-12T04:48:56.918Z,15.13
2018-08-12T04:51:25.302Z,15.15
2018-08-12T04:53:53.670Z,15.17
2018-08-12T04:56:22.069Z,15.22
2018-08-12T04:58:50.437Z,15.27
2018-08-12T05:01:18.872Z,15.32
2018-08-12T05:03:47.507Z,15.39
2018-08-12T05:06:15.893Z,15.45
2018-08-12T05:08:44.266Z,15.53
2018-08-12T05:11:12.694Z,15.61
2018-08-12T05:13:41.093Z,15.68
2018-08-12T05:16:09.501Z,15.75
2018-08-12T05:18:37.882Z,15.81
2018-08-12T05:21:06.298Z,15.85
2018-08-12T05:23:34.691Z,15.88
2018-08-12T05:26:03.109Z,15.92
2018-08-12T05:28:31.482Z,15.95
2018-08-12T05:30:59.874Z,15.99
2018-08-12T05:33:28.250Z,16.04
2018-08-12T05:35:56.655Z,16.08
2018-08-12T05:38:25.029Z,16.14
2018-08-12T05:40:55.182Z,16.17
2018-08-12T05:43:23.557Z,16.23
2018-08-12T05:45:51.941Z,16.31
2018-08-12T05:48:20.323Z,16.34
2018-08-12T05:50:48.726Z,16.40
2018-08-12T05:53:17.107Z,16.44
2018-08-12T05:55:45.505Z,16.52
2018-08-12T05:58:13.882Z,16.58
2018-08-12T06:00:42.283Z,16.66
2018-08-12T06:03:10.649Z,16.75
2018-08-12T06:05:39.042Z,16.86
2018-08-12T06:08:07.423Z,16.95
2018-08-12T06:10:35.823Z,17.05
2018-08-12T06:13:04.219Z,17.18
2018-08-12T06:15:32.700Z,17.30
2018-08-12T06:18:01.029Z,17.42
2018-08-12T06:20:29.454Z,17.52
2018-08-12T06:22:57.848Z,17.59
2018-08-12T06:25:26.222Z,17.67
2018-08-12T06:27:54.609Z,17.76
2018-08-12T06:30:22.985Z,17.82
2018-08-12T06:32:51.375Z,17.90
2018-08-12T06:35:19.746Z,17.99
2018-08-12T06:37:48.153Z,18.09
2018-08-12T06:40:16.526Z,18.19
2018-08-12T06:42:45.970Z,18.28
2018-08-12T06:45:16.106Z,18.38
2018-08-12T06:47:45.694Z,18.48
2018-08-12T06:50:14.071Z,18.57
2018-08-12T06:52:42.710Z,18.68
2018-08-12T06:55:12.339Z,18.77
2018-08-12T06:57:41.264Z,18.90
2018-08-12T07:00:12.410Z,19.02
2018-08-12T07:02:40.831Z,19.12
2018-08-12T07:05:10.068Z,19.23
2018-08-12T07:07:38.567Z,19.33
2018-08-12T07:10:09.074Z,19.44
2018-08-12T07:12:37.467Z,19.53
2018-08-12T07:15:07.948Z,19.59
2018-08-12T07:17:36.356Z,19.67
2018-08-12T07:20:06.231Z,19.75
2018-08-12T07:22:34.642Z,19.84
2018-08-12T07:25:03.029Z,19.94
2018-08-12T07:27:31.435Z,20.02
2018-08-12T07:29:59.817Z,20.09
2018-08-12T07:32:28.234Z,20.15
2018-08-12T07:34:56.608Z,20.25
2018-08-12T07:37:25.006Z,20.35
2018-08-12T07:39:53.373Z,20.46
2018-08-12T07:42:21.769Z,20.53
2018-08-12T07:44:50.153Z,20.61
2018-08-12T07:47:18.546Z,20.69
2018-08-12T07:49:46.922Z,20.72
2018-08-12T07:52:15.322Z,20.79
2018-08-12T07:54:43.731Z,20.77
2018-08-12T07:57:12.125Z,20.75
2018-08-12T07:59:40.498Z,20.75
2018-08-12T08:02:08.885Z,20.77
2018-08-12T08:04:37.259Z,20.79
2018-08-12T08:07:05.950Z,20.83
2018-08-12T08:09:34.328Z,20.85
2018-08-12T08:12:02.734Z,20.90
2018-08-12T08:14:31.116Z,20.99
2018-08-12T08:16:59.507Z,21.07
2018-08-12T08:19:27.885Z,21.13
2018-08-12T08:21:56.295Z,21.20
2018-08-12T08:24:24.668Z,21.27
2018-08-12T08:26:53.249Z,21.37
2018-08-12T08:29:21.621Z,21.52
2018-08-12T08:31:50.235Z,21.65
2018-08-12T08:34:18.454Z,21.73
2018-08-12T08:36:46.813Z,21.79
2018-08-12T08:39:15.350Z,21.84
2018-08-12T08:41:43.914Z,21.82
2018-08-12T08:44:12.314Z,21.81
2018-08-12T08:46:40.704Z,21.84
2018-08-12T08:49:09.113Z,21.89
2018-08-12T08:51:37.485Z,21.94
2018-08-12T08:54:06.070Z,22.03
2018-08-12T08:56:34.443Z,22.08
2018-08-12T08:59:03.038Z,22.14
2018-08-12T09:01:31.454Z,22.17
2018-08-12T09:03:59.823Z,22.30
2018-08-12T09:06:28.200Z,22.45
2018-08-12T09:08:56.800Z,22.58
2018-08-12T09:11:25.007Z,22.73
2018-08-12T09:13:53.429Z,22.84
2018-08-12T09:16:21.825Z,22.89
2018-08-12T09:18:50.236Z,22.98
2018-08-12T09:21:18.628Z,23.04
2018-08-12T09:23:47.045Z,23.11
2018-08-12T09:26:15.440Z,23.18
2018-08-12T09:28:43.890Z,23.15
2018-08-12T09:31:12.307Z,23.21
2018-08-12T09:33:40.717Z,23.21
2018-08-12T09:36:09.123Z,23.19
2018-08-12T09:38:37.517Z,23.20
2018-08-12T09:41:06.065Z,23.15
2018-08-12T09:43:34.475Z,23.17
2018-08-12T09:46:02.857Z,23.13
2018-08-12T09:48:31.603Z,23.13
2018-08-12T09:50:59.974Z,23.15
2018-08-12T09:53:28.397Z,23.16
2018-08-12T09:55:56.772Z,23.14
2018-08-12T09:58:25.210Z,23.10
2018-08-12T10:00:53.569Z,23.03
2018-08-12T10:03:21.966Z,23.06
2018-08-12T10:05:50.380Z,22.97
2018-08-12T10:08:18.782Z,22.92
2018-08-12T10:10:47.172Z,22.94
2018-08-12T10:13:15.637Z,22.96
2018-08-12T10:15:44.071Z,23.06
2018-08-12T10:18:12.482Z,23.11
2018-08-12T10:20:40.906Z,23.22
2018-08-12T10:23:09.330Z,23.34
2018-08-12T10:25:37.727Z,23.42
2018-08-12T10:28:06.111Z,23.42
2018-08-12T10:30:34.513Z,23.48
2018-08-12T10:33:02.900Z,23.53
2018-08-12T10:35:31.302Z,23.60
2018-08-12T10:37:59.698Z,23.65
2018-08-12T10:40:28.105Z,23.75
2018-08-12T10:42:56.478Z,23.86
2018-08-12T10:45:24.905Z,23.87
2018-08-12T10:47:53.300Z,23.87
2018-08-12T10:50:21.698Z,23.92
2018-08-12T10:52:50.462Z,23.84
2018-08-12T10:55:21.451Z,23.78
2018-08-12T10:57:50.013Z,23.80
2018-08-12T11:00:21.779Z,23.84
2018-08-12T11:02:50.189Z,23.88
2018-08-12T11:05:18.843Z,23.96
2018-08-12T11:07:49.871Z,24.03
2018-08-12T11:10:18.277Z,24.10
2018-08-12T11:12:46.759Z,24.15
2018-08-12T11:15:15.192Z,24.20
2018-08-12T11:17:43.578Z,24.28
2018-08-12T11:20:11.997Z,24.37
2018-08-12T11:22:40.397Z,24.42
2018-08-12T11:25:10.280Z,24.56
2018-08-12T11:27:38.675Z,24.67
2018-08-12T11:30:09.137Z,24.76
2018-08-12T11:32:37.562Z,24.82
2018-08-12T11:35:07.208Z,24.90
2018-08-12T11:37:35.590Z,25.00
2018-08-12T11:40:04.687Z,25.10
2018-08-12T11:42:33.082Z,25.17
2018-08-12T11:45:01.494Z,25.18
2018-08-12T11:47:29.891Z,25.15
2018-08-12T11:49:58.299Z,25.15
2018-08-12T11:52:26.678Z,25.14
2018-08-12T11:54:55.080Z,25.18
2018-08-12T11:57:23.463Z,25.25
2018-08-12T11:59:51.887Z,25.31
2018-08-12T12:02:20.271Z,25.32
2018-08-12T12:04:48.682Z,25.28
2018-08-12T12:07:17.103Z,25.29
2018-08-12T12:09:45.497Z,25.32
2018-08-12T12:12:13.923Z,25.37
2018-08-12T12:14:42.358Z,25.42
2018-08-12T12:17:10.789Z,25.44
2018-08-12T12:19:39.235Z,25.44
2018-08-12T12:22:07.634Z,25.50
2018-08-12T12:24:36.087Z,25.53
2018-08-12T12:27:04.482Z,25.58
2018-08-12T12:29:32.867Z,25.64
2018-08-12T12:32:01.535Z,25.68
2018-08-12T12:34:29.939Z,25.71
2018-08-12T12:36:58.383Z,25.70
2018-08-12T12:39:26.767Z,25.67
2018-08-12T12:41:55.187Z,25.69
2018-08-12T12:44:23.663Z,25.72
2018-08-12T12:46:52.057Z,25.81
2018-08-12T12:49:20.437Z,25.88
2018-08-12T12:51:48.891Z,25.88
2018-08-12T12:54:17.270Z,25.88
2018-08-12T12:56:46.040Z,25.89
2018-08-12T12:59:14.443Z,25.89
2018-08-12T13:01:42.841Z,25.88
2018-08-12T13:04:11.231Z,25.76
2018-08-12T13:06:39.637Z,25.69
2018-08-12T13:09:10.722Z,25.71
2018-08-12T13:11:39.118Z,25.68
2018-08-12T13:14:07.837Z,25.70
2018-08-12T13:16:36.560Z,25.74
2018-08-12T13:19:05.319Z,25.82
2018-08-12T13:21:33.717Z,25.86
2018-08-12T13:24:02.147Z,25.93
2018-08-12T13:26:30.579Z,26.00
2018-08-12T13:28:58.991Z,26.06
2018-08-12T13:31:27.382Z,26.14
2018-08-12T13:33:55.852Z,26.22
2018-08-12T13:36:24.279Z,26.33
2018-08-12T13:38:52.647Z,26.41
2018-08-12T13:41:21.087Z,26.44
2018-08-12T13:43:49.466Z,26.44
2018-08-12T13:46:17.868Z,26.41
2018-08-12T13:48:46.239Z,26.43
2018-08-12T13:51:14.646Z,26.43
2018-08-12T13:53:43.034Z,26.44
2018-08-12T13:56:11.430Z,26.42
2018-08-12T13:58:39.819Z,26.43
2018-08-12T14:01:08.232Z,26.43
2018-08-12T14:03:36.624Z,26.50
2018-08-12T14:06:05.018Z,26.56
2018-08-12T14:08:33.391Z,26.64
2018-08-12T14:11:01.784Z,26.70
2018-08-12T14:13:30.203Z,26.75
2018-08-12T14:15:58.623Z,26.75
2018-08-12T14:18:27.008Z,26.75
2018-08-12T14:20:55.475Z,26.75
2018-08-12T14:23:23.835Z,26.78
2018-08-12T14:25:52.219Z,26.84
2018-08-12T14:28:20.637Z,26.84
2018-08-12T14:30:49.006Z,26.87
2018-08-12T14:33:17.406Z,26.81
2018-08-12T14:35:45.773Z,26.77
2018-08-12T14:38:14.167Z,26.72
2018-08-12T14:40:42.533Z,26.72
2018-08-12T14:43:10.931Z,26.77
2018-08-12T14:45:39.311Z,26.80
2018-08-12T14:48:07.747Z,26.82
2018-08-12T14:50:36.126Z,26.86
2018-08-12T14:53:04.546Z,26.83
2018-08-12T14:55:32.928Z,26.81
2018-08-12T14:58:01.330Z,26.79
2018-08-12T15:00:29.721Z,26.73
2018-08-12T15:02:58.113Z,26.66
2018-08-12T15:05:26.499Z,26.63
2018-08-12T15:07:54.905Z,26.61
2018-08-12T15:10:23.298Z,26.60
2018-08-12T15:12:51.709Z,26.60
2018-08-12T15:15:20.194Z,26.59
2018-08-12T15:17:48.526Z,26.60
2018-08-12T15:20:17.522Z,26.59
2018-08-12T15:22:45.959Z,26.63
2018-08-12T15:25:17.253Z,26.66
2018-08-12T15:27:45.766Z,26.70
2018-08-12T15:30:14.141Z,26.67
2018-08-12T15:32:42.538Z,26.69
2018-08-12T15:35:11.087Z,26.74
2018-08-12T15:37:39.481Z,26.82
2018-08-12T15:40:10.173Z,26.89
2018-08-12T15:42:38.701Z,26.91
2018-08-12T15:45:09.219Z,26.93
2018-08-12T15:47:37.639Z,26.90
2018-08-12T15:50:06.783Z,26.86
2018-08-12T15:52:35.174Z,26.80
2018-08-12T15:55:03.566Z,26.79
2018-08-12T15:57:31.962Z,26.78
2018-08-12T16:00:00.325Z,26.77
2018-08-12T16:02:28.731Z,26.75
2018-08-12T16:04:57.105Z,26.75
2018-08-12T16:07:25.515Z,26.74
2018-08-12T16:09:53.894Z,26.71
2018-08-12T16:12:22.289Z,26.70
2018-08-12T16:14:50.689Z,26.70
2018-08-12T16:17:19.091Z,26.75
2018-08-12T16:19:47.475Z,26.75
2018-08-12T16:22:15.941Z,26.76
2018-08-12T16:24:44.312Z,26.74
2018-08-12T16:27:12.716Z,26.69
2018-08-12T16:29:41.146Z,26.62
2018-08-12T16:32:09.531Z,26.56
2018-08-12T16:34:37.926Z,26.55
2018-08-12T16:37:06.423Z,26.55
2018-08-12T16:39:34.821Z,26.58
2018-08-12T16:42:03.205Z,26.61
2018-08-12T16:44:31.606Z,26.65
2018-08-12T16:46:59.991Z,26.64
2018-08-12T16:49:28.518Z,26.61
2018-08-12T16:51:56.806Z,26.57
2018-08-12T16:54:25.197Z,26.55
2018-08-12T16:56:53.619Z,26.49
2018-08-12T16:59:21.997Z,26.44
2018-08-12T17:01:50.383Z,26.39
2018-08-12T17:04:18.873Z,26.34
2018-08-12T17:06:47.276Z,26.28
2018-08-12T17:09:15.697Z,26.23
2018-08-12T17:11:44.061Z,26.18
2018-08-12T17:14:12.486Z,26.11
2018-08-12T17:16:40.849Z,26.08
2018-08-12T17:19:09.247Z,26.04
2018-08-12T17:21:37.629Z,26.00
2018-08-12T17:24:06.031Z,25.97
2018-08-12T17:26:34.414Z,25.95
2018-08-12T17:29:02.840Z,25.91
2018-08-12T17:31:31.226Z,25.88
2018-08-12T17:33:59.621Z,25.84
2018-08-12T17:36:28.003Z,25.81
2018-08-12T17:38:56.410Z,25.76
2018-08-12T17:41:24.783Z,25.74
2018-08-12T17:43:53.191Z,25.72
2018-08-12T17:46:21.608Z,25.70
2018-08-12T17:48:50.017Z,25.65
2018-08-12T17:51:18.398Z,25.60
2018-08-12T17:53:46.802Z,25.58
2018-08-12T17:56:15.198Z,25.57
2018-08-12T17:58:43.710Z,25.55
2018-08-12T18:01:12.133Z,25.52
2018-08-12T18:03:40.524Z,25.50
2018-08-12T18:06:08.898Z,25.49
2018-08-12T18:08:37.315Z,25.47
2018-08-12T18:11:05.701Z,25.44
2018-08-12T18:13:34.130Z,25.42
2018-08-12T18:16:02.518Z,25.39
2018-08-12T18:18:30.921Z,25.38
2018-08-12T18:20:59.444Z,25.33
2018-08-12T18:23:27.912Z,25.28
2018-08-12T18:25:56.294Z,25.24
2018-08-12T18:28:24.839Z,25.18
2018-08-12T18:30:53.218Z,25.13
2018-08-12T18:33:21.611Z,25.10
2018-08-12T18:35:50.043Z,25.05
2018-08-12T18:38:18.491Z,24.99
2018-08-12T18:40:46.890Z,24.95
2018-08-12T18:43:15.305Z,24.91
2018-08-12T18:45:43.714Z,24.86
2018-08-12T18:48:12.113Z,24.80
2018-08-12T18:50:40.524Z,24.75
2018-08-12T18:53:08.911Z,24.71
2018-08-12T18:55:37.338Z,24.64
2018-08-12T18:58:05.740Z,24.58
2018-08-12T19:00:34.140Z,24.53
2018-08-12T19:03:02.518Z,24.48
2018-08-12T19:05:30.924Z,24.41
2018-08-12T19:07:59.313Z,24.34
2018-08-12T19:10:27.719Z,24.24
2018-08-12T19:12:56.837Z,24.12
2018-08-12T19:15:25.257Z,23.97
2018-08-12T19:17:53.657Z,23.86
2018-08-12T19:20:22.067Z,23.77
2018-08-12T19:22:50.445Z,23.68
2018-08-12T19:25:18.847Z,23.62
2018-08-12T19:27:47.221Z,23.55
2018-08-12T19:30:15.614Z,23.50
2018-08-12T19:32:44.009Z,23.44
2018-08-12T19:35:12.990Z,23.38
2018-08-12T19:37:41.653Z,23.32
2018-08-12T19:40:10.467Z,23.26
2018-08-12T19:42:39.234Z,23.22
2018-08-12T19:45:08.759Z,23.16
2018-08-12T19:47:37.170Z,23.11
2018-08-12T19:50:06.187Z,23.03
2018-08-12T19:52:34.603Z,22.95
2018-08-12T19:55:03.016Z,22.91
2018-08-12T19:57:31.399Z,22.85
2018-08-12T19:59:59.847Z,22.80
2018-08-12T20:02:28.339Z,22.73
2018-08-12T20:04:56.758Z,22.69
2018-08-12T20:07:25.137Z,22.64
2018-08-12T20:09:53.543Z,22.58
2018-08-12T20:12:21.926Z,22.53
2018-08-12T20:14:50.366Z,22.47
2018-08-12T20:17:18.758Z,22.42
2018-08-12T20:19:47.153Z,22.39
2018-08-12T20:22:16.581Z,22.34
2018-08-12T20:24:45.480Z,22.28
2018-08-12T20:27:14.206Z,22.22
2018-08-12T20:29:43.073Z,22.19
2018-08-12T20:32:11.451Z,22.14
2018-08-12T20:34:40.010Z,22.09
2018-08-12T20:37:08.466Z,22.05
2018-08-12T20:39:36.915Z,21.99
2018-08-12T20:42:05.279Z,21.95
2018-08-12T20:44:33.657Z,21.89
2018-08-12T20:47:02.046Z,21.82
2018-08-12T20:49:30.418Z,21.74
2018-08-12T20:51:58.812Z,21.72
2018-08-12T20:54:27.222Z,21.67
2018-08-12T20:56:55.619Z,21.65
2018-08-12T20:59:24.059Z,21.64
2018-08-12T21:01:52.414Z,21.63
2018-08-12T21:04:20.790Z,21.61
2018-08-12T21:06:49.191Z,21.57
2018-08-12T21:09:17.582Z,21.53
2018-08-12T21:11:46.061Z,21.48
2018-08-12T21:14:14.409Z,21.44
2018-08-12T21:16:42.813Z,21.39
2018-08-12T21:19:11.215Z,21.31
2018-08-12T21:21:39.618Z,21.27
2018-08-12T21:24:07.995Z,21.22
2018-08-12T21:26:36.399Z,21.17
2018-08-12T21:29:04.786Z,21.10
2018-08-12T21:31:33.177Z,21.05
2018-08-12T21:34:01.551Z,20.97
2018-08-12T21:36:29.945Z,20.91
2018-08-12T21:38:58.333Z,20.85
2018-08-12T21:41:26.742Z,20.80
2018-08-12T21:43:55.118Z,20.73
2018-08-12T21:46:23.510Z,20.68
2018-08-12T21:48:51.887Z,20.62
2018-08-12T21:51:20.279Z,20.56
2018-08-12T21:53:48.655Z,20.53
2018-08-12T21:56:17.046Z,20.47
2018-08-12T21:58:45.419Z,20.43
2018-08-12T22:01:13.873Z,20.37
2018-08-12T22:03:42.254Z,20.31
2018-08-12T22:06:10.650Z,20.28
2018-08-12T22:08:39.107Z,20.25
2018-08-12T22:11:07.498Z,20.24
2018-08-12T22:13:35.911Z,20.22
2018-08-12T22:16:04.317Z,20.23
2018-08-12T22:18:32.867Z,20.23
2018-08-12T22:21:01.265Z,20.21
2018-08-12T22:23:29.647Z,20.19
2018-08-12T22:25:58.051Z,20.17
2018-08-12T22:28:26.425Z,20.14
2018-08-12T22:30:54.826Z,20.10
2018-08-12T22:33:23.202Z,20.03
2018-08-12T22:35:51.583Z,19.98
2018-08-12T22:38:19.991Z,19.92
2018-08-12T22:40:48.383Z,19.85
2018-08-12T22:43:16.779Z,19.79
2018-08-12T22:45:45.162Z,19.76
2018-08-12T22:48:13.558Z,19.69
2018-08-12T22:50:41.946Z,19.66
2018-08-12T22:53:10.374Z,19.62
2018-08-12T22:55:38.758Z,19.59
2018-08-12T22:58:07.157Z,19.56
2018-08-12T23:00:35.566Z,19.52
2018-08-12T23:03:03.988Z,19.52
2018-08-12T23:05:32.378Z,19.48
2018-08-12T23:08:06.915Z,19.47
2018-08-12T23:10:35.514Z,19.45
2018-08-12T23:13:03.930Z,19.45
2018-08-12T23:16:45.971Z,19.45
2018-08-12T23:19:14.375Z,19.42
2018-08-12T23:21:42.778Z,19.39
2018-08-12T23:24:11.153Z,19.37
2018-08-12T23:26:39.558Z,19.34
2018-08-12T23:29:07.938Z,19.33
2018-08-12T23:31:36.343Z,19.32
2018-08-12T23:34:04.714Z,19.33
2018-08-12T23:36:33.126Z,19.32
2018-08-12T23:39:01.548Z,19.29
2018-08-12T23:41:29.933Z,19.26
2018-08-12T23:43:58.334Z,19.20
2018-08-12T23:46:26.714Z,19.16
2018-08-12T23:48:55.119Z,19.12
2018-08-12T23:51:23.512Z,19.10
2018-08-12T23:53:51.911Z,19.09
2018-08-12T23:56:20.293Z,19.08
2018-08-12T23:58:48.701Z,19.09
